createdAt,value
2017-08-15T00:01:16.300Z,4.20
2017-08-15T00:03:43.814Z,4.27
2017-08-15T00:06:12.139Z,4.30
2017-08-15T00:08:39.650Z,5.03
2017-08-15T00:11:07.136Z,4.43
2017-08-15T00:13:34.632Z,4.43
2017-08-15T00:16:02.120Z,4.23
2017-08-15T00:18:29.615Z,4.23
2017-08-15T00:20:57.096Z,4.77
2017-08-15T00:23:24.600Z,4.20
2017-08-15T00:25:52.080Z,3.87
2017-08-15T00:28:19.593Z,4.87
2017-08-15T00:30:47.080Z,4.20
2017-08-15T00:33:14.588Z,5.20
2017-08-15T00:35:42.846Z,3.90
2017-08-15T00:38:11.123Z,4.00
2017-08-15T00:40:38.632Z,4.67
2017-08-15T00:43:06.136Z,4.87
2017-08-15T00:45:33.615Z,4.50
2017-08-15T00:48:01.113Z,4.50
2017-08-15T00:50:28.588Z,4.30
2017-08-15T00:52:56.080Z,4.47
2017-08-15T00:55:23.560Z,4.50
2017-08-15T00:57:51.687Z,4.60
2017-08-15T01:00:19.931Z,4.50
2017-08-15T01:02:47.431Z,4.50
2017-08-15T01:05:14.906Z,4.73
2017-08-15T01:07:42.391Z,4.53
2017-08-15T01:10:09.896Z,4.33
2017-08-15T01:12:37.383Z,4.30
2017-08-15T01:15:04.883Z,4.70
2017-08-15T01:17:32.359Z,4.80
2017-08-15T01:19:59.855Z,5.53
2017-08-15T01:22:27.336Z,4.83
2017-08-15T01:24:54.831Z,5.00
2017-08-15T01:27:22.316Z,4.73
2017-08-15T01:29:50.582Z,5.13
2017-08-15T01:32:18.827Z,5.60
2017-08-15T01:34:46.328Z,5.30
2017-08-15T01:37:13.804Z,5.07
2017-08-15T01:39:41.305Z,5.30
2017-08-15T01:42:08.820Z,4.70
2017-08-15T01:44:36.322Z,4.67
2017-08-15T01:47:03.812Z,4.87
2017-08-15T01:49:31.312Z,4.50
2017-08-15T01:51:58.799Z,4.63
2017-08-15T01:54:26.303Z,4.70
2017-08-15T01:56:53.787Z,4.40
2017-08-15T01:59:21.271Z,4.80
2017-08-15T02:01:48.775Z,5.17
2017-08-15T02:04:16.260Z,4.47
2017-08-15T02:06:43.763Z,5.10
2017-08-15T02:09:11.245Z,6.10
2017-08-15T02:11:38.776Z,5.07
2017-08-15T02:14:06.252Z,4.47
2017-08-15T02:16:33.760Z,5.10
2017-08-15T02:19:01.249Z,5.73
2017-08-15T02:21:29.507Z,4.70
2017-08-15T02:23:57.752Z,5.20
2017-08-15T02:26:25.251Z,5.37
2017-08-15T02:28:52.727Z,5.30
2017-08-15T02:31:20.222Z,4.63
2017-08-15T02:33:47.700Z,5.20
2017-08-15T02:36:15.203Z,4.90
2017-08-15T02:38:42.682Z,5.20
2017-08-15T02:41:10.187Z,4.60
2017-08-15T02:43:37.664Z,4.83
2017-08-15T02:46:05.170Z,4.77
2017-08-15T02:48:32.660Z,4.53
2017-08-15T02:51:00.152Z,4.27
2017-08-15T02:53:27.638Z,4.70
2017-08-15T02:55:55.131Z,4.47
2017-08-15T02:58:22.607Z,4.47
2017-08-15T03:00:50.114Z,4.77
2017-08-15T03:03:17.616Z,4.57
2017-08-15T03:05:45.100Z,5.37
2017-08-15T03:08:12.612Z,5.17
2017-08-15T03:10:40.875Z,4.10
2017-08-15T03:13:08.379Z,4.10
2017-08-15T03:15:35.875Z,4.93
2017-08-15T03:18:04.136Z,4.77
2017-08-15T03:20:32.384Z,4.17
2017-08-15T03:23:00.660Z,4.73
2017-08-15T03:25:28.143Z,4.80
2017-08-15T03:27:55.644Z,4.13
2017-08-15T03:30:23.122Z,4.60
2017-08-15T03:32:50.632Z,3.80
2017-08-15T03:35:18.112Z,3.87
2017-08-15T03:37:45.627Z,4.90
2017-08-15T03:40:13.100Z,4.53
2017-08-15T03:42:40.595Z,4.23
2017-08-15T03:45:08.842Z,4.43
2017-08-15T03:47:36.341Z,4.60
2017-08-15T03:50:03.824Z,4.00
2017-08-15T03:52:31.319Z,4.33
2017-08-15T03:54:58.791Z,4.40
2017-08-15T03:57:26.288Z,3.70
2017-08-15T03:59:53.758Z,3.90
2017-08-15T04:02:21.231Z,3.70
2017-08-15T04:04:48.724Z,3.70
2017-08-15T04:07:16.206Z,3.97
2017-08-15T04:09:43.707Z,3.80
2017-08-15T04:12:11.196Z,4.07
2017-08-15T04:14:38.718Z,3.27
2017-08-15T04:17:06.195Z,4.47
2017-08-15T04:19:33.699Z,3.70
2017-08-15T04:22:01.172Z,3.60
2017-08-15T04:24:29.449Z,3.27
2017-08-15T04:26:57.694Z,3.97
2017-08-15T04:29:25.192Z,4.27
2017-08-15T04:31:52.672Z,4.37
2017-08-15T04:34:20.168Z,4.33
2017-08-15T04:36:47.635Z,4.80
2017-08-15T04:39:15.140Z,4.33
2017-08-15T04:41:42.624Z,4.57
2017-08-15T04:44:10.130Z,7.03
2017-08-15T04:46:37.615Z,4.53
2017-08-15T04:49:05.115Z,4.90
2017-08-15T04:51:32.599Z,4.40
2017-08-15T04:54:00.088Z,5.10
2017-08-15T04:56:27.573Z,5.67
2017-08-15T04:58:55.287Z,5.40
2017-08-15T05:01:22.771Z,4.13
2017-08-15T05:03:50.243Z,5.30
2017-08-15T05:06:18.506Z,4.63
2017-08-15T05:08:46.775Z,4.40
2017-08-15T05:11:14.280Z,4.67
2017-08-15T05:13:41.780Z,4.50
2017-08-15T05:16:09.291Z,5.20
2017-08-15T05:18:37.548Z,5.03
2017-08-15T05:21:05.817Z,4.77
2017-08-15T05:23:33.299Z,4.90
2017-08-15T05:26:00.791Z,4.40
2017-08-15T05:28:29.048Z,5.57
2017-08-15T05:30:56.543Z,5.07
2017-08-15T05:33:24.035Z,4.90
2017-08-15T05:35:52.303Z,5.17
2017-08-15T05:38:20.568Z,5.40
2017-08-15T05:40:48.072Z,4.97
2017-08-15T05:43:15.568Z,5.90
2017-08-15T05:45:43.043Z,5.67
2017-08-15T05:48:10.547Z,5.83
2017-08-15T05:50:38.025Z,6.00
2017-08-15T05:53:05.508Z,5.53
2017-08-15T05:55:33.777Z,5.30
2017-08-15T05:58:01.263Z,5.40
2017-08-15T06:00:28.763Z,5.30
2017-08-15T06:02:56.245Z,6.20
2017-08-15T06:05:23.740Z,6.10
2017-08-15T06:07:52.063Z,5.33
2017-08-15T06:10:19.546Z,6.70
2017-08-15T06:12:47.809Z,6.00
2017-08-15T06:15:16.069Z,5.70
2017-08-15T06:17:44.335Z,5.30
2017-08-15T06:20:11.815Z,6.27
2017-08-15T06:22:39.340Z,11.50
2017-08-15T06:25:06.881Z,11.93
2017-08-15T06:27:34.399Z,7.47
2017-08-15T06:30:02.652Z,6.00
2017-08-15T06:32:30.911Z,5.10
2017-08-15T06:34:59.155Z,5.80
2017-08-15T06:37:26.692Z,4.97
2017-08-15T06:39:54.241Z,5.70
2017-08-15T06:42:22.539Z,4.97
2017-08-15T06:44:50.021Z,4.80
2017-08-15T06:47:17.525Z,4.67
2017-08-15T06:49:45.005Z,5.07
2017-08-15T06:52:12.516Z,4.40
2017-08-15T06:54:40.141Z,5.17
2017-08-15T06:57:08.450Z,4.97
2017-08-15T06:59:35.936Z,5.00
2017-08-15T07:02:04.207Z,5.13
2017-08-15T07:04:32.447Z,5.10
2017-08-15T07:06:59.961Z,5.40
2017-08-15T07:09:27.456Z,5.60
2017-08-15T07:11:54.936Z,4.90
2017-08-15T07:14:22.440Z,5.50
2017-08-15T07:16:49.925Z,4.93
2017-08-15T07:19:17.428Z,5.80
2017-08-15T07:21:44.923Z,5.03
2017-08-15T07:24:12.436Z,4.90
2017-08-15T07:26:39.941Z,4.90
2017-08-15T07:29:07.456Z,6.13
2017-08-15T07:31:34.955Z,5.27
2017-08-15T07:34:02.454Z,5.40
2017-08-15T07:36:29.928Z,5.13
2017-08-15T07:38:57.436Z,5.60
2017-08-15T07:41:24.916Z,5.37
2017-08-15T07:43:52.417Z,5.00
2017-08-15T07:46:19.891Z,5.80
2017-08-15T07:48:48.169Z,5.93
2017-08-15T07:51:15.668Z,6.77
2017-08-15T07:53:43.173Z,5.43
2017-08-15T07:56:10.667Z,5.60
2017-08-15T07:58:38.933Z,6.00
2017-08-15T08:01:07.184Z,6.10
2017-08-15T08:03:35.481Z,7.10
2017-08-15T08:06:02.963Z,6.10
2017-08-15T08:08:30.440Z,5.70
2017-08-15T08:10:58.703Z,6.60
2017-08-15T08:13:26.219Z,6.80
2017-08-15T08:15:53.720Z,6.50
2017-08-15T08:18:21.202Z,7.30
2017-08-15T08:20:48.696Z,7.13
2017-08-15T08:23:16.184Z,7.87
2017-08-15T08:25:43.696Z,9.60
2017-08-15T08:28:11.186Z,7.60
2017-08-15T08:30:39.453Z,7.13
2017-08-15T08:33:07.724Z,8.80
2017-08-15T08:35:35.240Z,7.80
2017-08-15T08:38:02.732Z,6.60
2017-08-15T08:40:30.230Z,6.27
2017-08-15T08:42:57.714Z,6.30
2017-08-15T08:45:25.236Z,9.37
2017-08-15T08:47:52.717Z,7.00
2017-08-15T08:50:20.216Z,7.20
2017-08-15T08:52:48.462Z,5.77
2017-08-15T08:55:16.736Z,7.53
2017-08-15T08:57:44.991Z,9.20
2017-08-15T09:00:12.500Z,9.17
2017-08-15T09:02:40.003Z,9.80
2017-08-15T09:05:07.531Z,10.20
2017-08-15T09:07:35.033Z,9.70
2017-08-15T09:10:02.539Z,10.30
2017-08-15T09:12:30.033Z,10.27
2017-08-15T09:14:57.536Z,8.90
2017-08-15T09:17:25.032Z,10.73
2017-08-15T09:19:52.527Z,10.23
2017-08-15T09:22:20.045Z,10.60
2017-08-15T09:24:47.540Z,12.30
2017-08-15T09:27:15.054Z,10.83
2017-08-15T09:29:46.476Z,12.77
2017-08-15T09:32:13.996Z,10.30
2017-08-15T09:34:41.491Z,11.90
2017-08-15T09:37:09.004Z,11.60
2017-08-15T09:39:36.496Z,9.60
2017-08-15T09:42:04.779Z,9.93
2017-08-15T09:44:32.379Z,8.60
2017-08-15T09:46:59.894Z,9.40
2017-08-15T09:49:27.386Z,8.63
2017-08-15T09:51:54.903Z,8.80
2017-08-15T09:54:22.392Z,8.10
2017-08-15T09:56:49.952Z,6.50
2017-08-15T09:59:17.444Z,7.57
2017-08-15T10:01:45.104Z,7.50
2017-08-15T10:04:12.588Z,6.17
2017-08-15T10:06:40.091Z,6.70
2017-08-15T10:09:07.567Z,6.40
2017-08-15T10:11:35.096Z,5.90
2017-08-15T10:14:03.346Z,5.43
2017-08-15T10:16:30.840Z,5.30
2017-08-15T10:18:58.365Z,5.60
2017-08-15T10:21:25.852Z,5.27
2017-08-15T10:23:53.353Z,4.63
2017-08-15T10:26:20.827Z,4.83
2017-08-15T10:28:48.324Z,4.73
2017-08-15T10:31:15.811Z,4.60
2017-08-15T10:33:43.320Z,4.70
2017-08-15T10:36:10.813Z,4.33
2017-08-15T10:38:38.342Z,5.37
2017-08-15T10:41:05.839Z,4.40
2017-08-15T10:43:33.345Z,5.00
2017-08-15T10:46:00.830Z,5.27
2017-08-15T10:48:28.331Z,5.00
2017-08-15T10:50:56.583Z,5.13
2017-08-15T10:53:24.084Z,5.13
2017-08-15T10:55:51.563Z,4.40
2017-08-15T10:58:19.060Z,4.67
2017-08-15T11:00:46.540Z,5.03
2017-08-15T11:03:14.034Z,5.23
2017-08-15T11:05:41.508Z,5.40
2017-08-15T11:08:09.001Z,5.37
2017-08-15T11:10:36.501Z,5.60
2017-08-15T11:13:03.980Z,5.33
2017-08-15T11:15:32.255Z,5.27
2017-08-15T11:17:59.756Z,4.93
2017-08-15T11:20:27.259Z,5.30
2017-08-15T11:22:54.747Z,5.00
2017-08-15T11:25:22.252Z,5.80
2017-08-15T11:27:49.805Z,5.47
2017-08-15T11:30:17.303Z,5.33
2017-08-15T11:32:44.792Z,5.90
2017-08-15T11:35:12.299Z,6.93
2017-08-15T11:37:39.789Z,6.07
2017-08-15T11:40:08.057Z,5.73
2017-08-15T11:42:36.304Z,6.40
2017-08-15T11:45:03.807Z,6.03
2017-08-15T11:47:31.300Z,5.73
2017-08-15T11:49:58.815Z,5.70
2017-08-15T11:52:26.300Z,5.20
2017-08-15T11:54:53.801Z,5.63
2017-08-15T11:57:21.293Z,5.90
2017-08-15T11:59:48.822Z,5.60
2017-08-15T12:02:16.302Z,7.40
2017-08-15T12:04:43.808Z,6.50
2017-08-15T12:07:11.301Z,6.20
2017-08-15T12:09:38.793Z,6.50
2017-08-15T12:12:06.287Z,5.50
2017-08-15T12:14:33.779Z,6.50
2017-08-15T12:17:01.447Z,6.40
2017-08-15T12:19:28.928Z,6.20
2017-08-15T12:21:56.429Z,6.20
2017-08-15T12:24:23.920Z,7.60
2017-08-15T12:26:51.426Z,6.37
2017-08-15T12:29:18.917Z,5.73
2017-08-15T12:31:47.193Z,6.50
2017-08-15T12:34:14.679Z,6.60
2017-08-15T12:36:42.180Z,6.30
2017-08-15T12:39:09.667Z,4.33
2017-08-15T12:41:37.163Z,4.67
2017-08-15T12:44:04.643Z,4.17
2017-08-15T12:46:32.153Z,4.63
2017-08-15T12:48:59.655Z,4.70
2017-08-15T12:51:27.179Z,5.10
2017-08-15T12:53:54.665Z,4.37
2017-08-15T12:56:22.939Z,4.37
2017-08-15T12:58:50.452Z,4.10
2017-08-15T13:01:18.732Z,4.13
2017-08-15T13:03:46.249Z,3.87
2017-08-15T13:06:14.547Z,4.57
2017-08-15T13:08:42.049Z,4.10
2017-08-15T13:11:09.541Z,4.30
2017-08-15T13:13:37.065Z,4.43
2017-08-15T13:16:04.565Z,4.33
2017-08-15T13:18:32.084Z,4.60
2017-08-15T13:20:59.586Z,4.80
2017-08-15T13:23:27.863Z,4.60
2017-08-15T13:25:55.357Z,4.67
2017-08-15T13:28:22.885Z,4.80
2017-08-15T13:30:50.387Z,4.37
2017-08-15T13:33:17.899Z,4.30
2017-08-15T13:35:45.388Z,4.33
2017-08-15T13:38:12.892Z,4.97
2017-08-15T13:40:40.400Z,4.10
2017-08-15T13:43:07.900Z,4.43
2017-08-15T13:45:35.399Z,5.30
2017-08-15T13:48:02.904Z,4.00
2017-08-15T13:50:30.392Z,3.87
2017-08-15T13:52:57.897Z,5.97
2017-08-15T13:55:25.471Z,6.10
2017-08-15T13:57:52.998Z,4.60
2017-08-15T14:00:20.525Z,5.33
2017-08-15T14:02:48.041Z,3.87
2017-08-15T14:05:15.532Z,4.30
2017-08-15T14:07:43.042Z,3.90
2017-08-15T14:10:10.532Z,4.27
2017-08-15T14:12:38.012Z,3.80
2017-08-15T14:15:05.531Z,4.27
2017-08-15T14:17:33.783Z,4.00
2017-08-15T14:20:01.394Z,3.70
2017-08-15T14:22:28.879Z,3.73
2017-08-15T14:24:56.371Z,3.50
2017-08-15T14:27:23.859Z,3.83
2017-08-15T14:29:51.364Z,4.10
2017-08-15T14:32:18.844Z,4.03
2017-08-15T14:34:46.349Z,3.17
2017-08-15T14:37:13.844Z,3.43
2017-08-15T14:39:41.348Z,4.10
2017-08-15T14:42:08.846Z,3.90
2017-08-15T14:44:36.359Z,3.63
2017-08-15T14:47:03.851Z,4.10
2017-08-15T14:49:31.353Z,3.53
2017-08-15T14:52:00.839Z,4.83
2017-08-15T14:54:29.107Z,4.57
2017-08-15T14:56:56.588Z,4.20
2017-08-15T14:59:24.099Z,3.90
2017-08-15T15:01:52.344Z,4.07
2017-08-15T15:04:20.616Z,5.70
2017-08-15T15:06:48.859Z,4.97
2017-08-15T15:09:16.365Z,4.60
2017-08-15T15:11:43.855Z,4.80
2017-08-15T15:14:12.148Z,3.90
2017-08-15T15:16:39.640Z,12.27
2017-08-15T15:19:07.122Z,5.70
2017-08-15T15:21:34.628Z,4.70
2017-08-15T15:24:02.172Z,5.27
2017-08-15T15:26:29.684Z,5.30
2017-08-15T15:28:57.168Z,5.20
2017-08-15T15:31:25.440Z,4.83
2017-08-15T15:33:52.956Z,5.37
2017-08-15T15:36:20.465Z,5.03
2017-08-15T15:38:47.957Z,4.60
2017-08-15T15:41:16.223Z,4.60
2017-08-15T15:43:43.712Z,4.83
2017-08-15T15:46:11.225Z,4.80
2017-08-15T15:48:38.709Z,4.97
2017-08-15T15:51:06.207Z,4.50
2017-08-15T15:53:33.700Z,4.50
2017-08-15T15:56:01.236Z,4.10
2017-08-15T15:58:28.702Z,4.77
2017-08-15T16:00:56.224Z,5.20
2017-08-15T16:03:23.695Z,5.20
2017-08-15T16:05:51.947Z,5.10
2017-08-15T16:08:19.452Z,5.10
2017-08-15T16:10:46.935Z,5.30
2017-08-15T16:13:14.452Z,5.27
2017-08-15T16:15:41.949Z,5.67
2017-08-15T16:18:09.465Z,4.83
2017-08-15T16:20:37.718Z,5.03
2017-08-15T16:23:05.213Z,6.03
2017-08-15T16:25:32.702Z,4.40
2017-08-15T16:28:00.204Z,5.67
2017-08-15T16:30:27.695Z,5.17
2017-08-15T16:32:55.965Z,5.30
2017-08-15T16:35:23.458Z,5.70
2017-08-15T16:37:51.275Z,5.17
2017-08-15T16:40:18.767Z,5.60
2017-08-15T16:42:46.264Z,4.67
2017-08-15T16:45:13.750Z,5.50
2017-08-15T16:47:41.268Z,4.80
2017-08-15T16:50:08.754Z,5.50
2017-08-15T16:52:37.040Z,5.60
2017-08-15T16:55:04.530Z,5.90
2017-08-15T16:57:32.028Z,5.37
2017-08-15T16:59:59.503Z,5.20
2017-08-15T17:02:27.008Z,5.20
2017-08-15T17:04:55.324Z,5.23
2017-08-15T17:07:29.485Z,5.33
2017-08-15T17:12:47.321Z,5.60
2017-08-15T17:15:14.821Z,6.33
2017-08-15T17:17:43.072Z,5.87
2017-08-15T17:20:11.335Z,5.20
2017-08-15T17:22:39.587Z,5.43
2017-08-15T17:25:07.861Z,6.00
2017-08-15T17:27:35.351Z,6.07
2017-08-15T17:30:02.902Z,5.70
2017-08-15T17:32:30.384Z,5.90
2017-08-15T17:34:58.653Z,6.30
2017-08-15T17:37:26.904Z,7.90
2017-08-15T17:39:55.173Z,6.67
2017-08-15T17:42:23.416Z,6.90
2017-08-15T17:44:50.917Z,7.00
2017-08-15T17:47:18.401Z,6.50
2017-08-15T17:49:45.895Z,6.73
2017-08-15T17:52:13.377Z,6.87
2017-08-15T17:54:40.879Z,7.90
2017-08-15T17:57:08.367Z,7.00
2017-08-15T17:59:35.891Z,7.70
2017-08-15T18:02:03.395Z,7.33
2017-08-15T18:04:30.888Z,6.73
2017-08-15T18:06:58.392Z,7.53
2017-08-15T18:09:25.875Z,7.60
2017-08-15T18:11:53.372Z,6.90
2017-08-15T18:14:20.862Z,6.47
2017-08-15T18:16:48.376Z,6.80
2017-08-15T18:19:15.856Z,8.13
2017-08-15T18:21:43.355Z,7.83
2017-08-15T18:24:10.843Z,7.10
2017-08-15T18:26:39.124Z,7.33
2017-08-15T18:29:06.635Z,7.30
2017-08-15T18:31:34.916Z,7.20
2017-08-15T18:34:02.425Z,7.37
2017-08-15T18:36:29.928Z,7.50
2017-08-15T18:38:57.607Z,7.50
2017-08-15T18:41:25.120Z,7.23
2017-08-15T18:43:52.620Z,7.33
2017-08-15T18:46:20.118Z,7.10
2017-08-15T18:48:47.601Z,6.70
2017-08-15T18:51:15.100Z,6.70
2017-08-15T18:53:42.593Z,7.63
2017-08-15T18:56:10.875Z,7.60
2017-08-15T18:58:38.355Z,7.03
2017-08-15T19:01:05.840Z,7.23
2017-08-15T19:03:34.105Z,7.80
2017-08-15T19:06:02.360Z,7.50
2017-08-15T19:08:30.624Z,8.07
2017-08-15T19:10:58.142Z,8.30
2017-08-15T19:13:25.647Z,7.90
2017-08-15T19:15:53.137Z,7.73
2017-08-15T19:18:20.687Z,8.23
2017-08-15T19:20:48.167Z,8.20
2017-08-15T19:23:15.678Z,7.57
2017-08-15T19:25:43.170Z,8.83
2017-08-15T19:28:10.676Z,8.73
2017-08-15T19:30:38.169Z,9.60
2017-08-15T19:33:05.666Z,9.57
2017-08-15T19:35:33.148Z,8.30
2017-08-15T19:38:00.651Z,8.87
2017-08-15T19:40:28.137Z,10.30
2017-08-15T19:42:55.653Z,30.60
2017-08-15T19:45:23.145Z,34.20
2017-08-15T19:47:50.678Z,10.50
2017-08-15T19:50:18.222Z,7.83
2017-08-15T19:52:45.732Z,8.53
2017-08-15T19:55:13.220Z,9.20
2017-08-15T19:57:40.711Z,8.97
2017-08-15T20:00:08.216Z,9.50
2017-08-15T20:02:36.478Z,8.53
2017-08-15T20:05:04.725Z,8.30
2017-08-15T20:07:32.220Z,8.90
2017-08-15T20:09:59.731Z,8.90
2017-08-15T20:12:27.230Z,9.33
2017-08-15T20:14:54.734Z,8.57
2017-08-15T20:17:22.208Z,8.70
2017-08-15T20:19:49.712Z,8.40
2017-08-15T20:22:17.187Z,8.70
2017-08-15T20:24:44.708Z,8.70
2017-08-15T20:27:12.186Z,9.37
2017-08-15T20:29:39.683Z,8.43
2017-08-15T20:32:07.168Z,9.00
2017-08-15T20:34:34.680Z,11.77
2017-08-15T20:37:02.192Z,9.37
2017-08-15T20:39:29.723Z,9.40
2017-08-15T20:41:57.971Z,8.90
2017-08-15T20:44:25.492Z,9.80
2017-08-15T20:46:52.972Z,9.07
2017-08-15T20:49:21.223Z,8.33
2017-08-15T20:51:48.715Z,8.90
2017-08-15T20:54:16.195Z,8.27
2017-08-15T20:56:43.692Z,9.10
2017-08-15T20:59:11.167Z,9.70
2017-08-15T21:01:38.664Z,8.20
2017-08-15T21:04:06.152Z,8.20
2017-08-15T21:06:33.660Z,9.20
2017-08-15T21:09:01.145Z,9.00
2017-08-15T21:11:28.640Z,8.40
2017-08-15T21:13:56.134Z,8.20
2017-08-15T21:16:23.616Z,8.13
2017-08-15T21:18:51.115Z,7.77
2017-08-15T21:21:18.587Z,8.50
2017-08-15T21:23:46.863Z,8.90
2017-08-15T21:26:14.355Z,9.90
2017-08-15T21:28:41.839Z,9.80
2017-08-15T21:31:10.106Z,23.60
2017-08-15T21:33:37.608Z,35.40
2017-08-15T21:36:05.121Z,15.40
2017-08-15T21:38:32.611Z,11.63
2017-08-15T21:41:00.144Z,10.13
2017-08-15T21:43:27.627Z,9.63
2017-08-15T21:45:58.109Z,8.60
2017-08-15T21:48:26.382Z,13.30
2017-08-15T21:50:54.635Z,10.57
2017-08-15T21:53:22.893Z,8.70
2017-08-15T21:55:51.139Z,8.87
2017-08-15T21:58:18.644Z,7.80
2017-08-15T22:00:51.908Z,8.13
2017-08-15T22:03:19.411Z,8.33
2017-08-15T22:05:46.887Z,8.97
2017-08-15T22:08:14.383Z,8.30
2017-08-15T22:10:41.865Z,8.00
2017-08-15T22:13:09.374Z,7.43
2017-08-15T22:15:37.623Z,7.30
2017-08-15T22:18:05.125Z,8.37
2017-08-15T22:20:32.617Z,7.80
2017-08-15T22:23:00.124Z,6.70
2017-08-15T22:25:27.603Z,8.10
2017-08-15T22:27:55.116Z,7.17
2017-08-15T22:30:22.596Z,8.00
2017-08-15T22:32:51.219Z,7.73
2017-08-15T22:35:18.696Z,7.90
2017-08-15T22:37:46.215Z,7.70
2017-08-15T22:40:13.696Z,7.50
2017-08-15T22:42:41.938Z,8.00
2017-08-15T22:45:09.435Z,8.27
2017-08-15T22:47:36.924Z,8.00
2017-08-15T22:50:04.424Z,7.93
2017-08-15T22:52:31.903Z,7.80
2017-08-15T22:54:59.392Z,8.20
2017-08-15T22:57:26.878Z,9.50
2017-08-15T22:59:54.384Z,8.50
2017-08-15T23:02:21.863Z,8.40
2017-08-15T23:04:49.375Z,8.50
2017-08-15T23:07:16.859Z,7.70
2017-08-15T23:09:44.353Z,7.97
2017-08-15T23:12:11.845Z,8.10
2017-08-15T23:14:39.343Z,7.27
2017-08-15T23:17:06.840Z,8.40
2017-08-15T23:19:35.107Z,8.13
2017-08-15T23:22:03.349Z,7.23
2017-08-15T23:24:30.862Z,6.93
2017-08-15T23:26:58.346Z,8.17
2017-08-15T23:29:26.621Z,7.80
2017-08-15T23:31:54.867Z,7.97
2017-08-15T23:34:23.139Z,7.40
2017-08-15T23:36:51.388Z,8.67
2017-08-15T23:39:19.681Z,7.63
2017-08-15T23:41:47.154Z,8.90
2017-08-15T23:44:14.631Z,8.50
2017-08-15T23:46:42.900Z,8.63
2017-08-15T23:49:10.384Z,8.20
2017-08-15T23:51:37.875Z,6.97
2017-08-15T23:54:06.125Z,8.27
2017-08-15T23:56:33.629Z,8.97
2017-08-15T23:59:01.127Z,7.80
